Main page
METAR-TAF:

METAR-TAF

Airports :

Clayton Municipal Airpark

Clayton, New Mexico, United States

latitude: 36-26-54N, longitude: 103-09-11W, elevation: 4963 ft

Current weather observation

The report was made 13 minutes ago, at 05:55 UTC
Wind 9 mph from the North
Temperature 57°F
Humidity 63%
Pressure 29.94 in. Hg
Visibility: 10 miles
Clear sky

METAR: KCAO 250555Z AUTO 35008KT 10SM CLR 14/07 A2994 RMK AO2 SLP072 T01390067 10250 20128 51002

Time: 00:08 (06:08 UTC)


TAF: missing

Weather observations and forecasts of more than 4000 airports (METAR and TAF reports).

The available stations are represented by yellow and red dots on the map.

Hover mouse over dot to see the name of the station.

Then click to see weather observations and forecasts.

To change the map : click on the green buttons with a black cross to zoom in, on the green button with a dash to zoom out, or on the green arrows for adjacent maps.


METAR-TAF: